Time;durP1;ratioP1;P1;durP2;ratioP2;P2;SDS_P1;SDS_P2;PMS_P1;PMS_P2;Temp;Humidity;BMP_temperature;BMP_pressure;BME280_temperature;BME280_humidity;BME280_pressure;Samples;Min_cycle;Max_cycle;Signal;HPM_P1;HPM_P2
2022/11/05 00:10:30;;;;;;;18.43;13.00;;;;;;;9.07;100.00;99649.61;1698334;83;20999;-75
2022/11/05 00:18:31;;;;;;;17.50;12.17;;;;;;;9.09;100.00;99669.98;1698662;83;21043;-76
2022/11/05 00:20:58;;;;;;;16.43;12.07;;;;;;;9.09;100.00;99685.23;1698207;83;21074;-75
2022/11/05 00:26:11;;;;;;;14.23;10.87;;;;;;;9.09;100.00;99686.97;1698345;83;21216;-75
2022/11/05 00:28:42;;;;;;;14.37;10.20;;;;;;;9.09;100.00;99685.66;1698404;83;20995;-76
2022/11/05 00:31:13;;;;;;;14.20;10.63;;;;;;;9.12;100.00;99697.33;1698280;84;21499;-76
2022/11/05 00:33:42;;;;;;;12.27;9.80;;;;;;;9.12;100.00;99699.48;1698457;83;21420;-76
2022/11/05 00:36:10;;;;;;;12.57;9.40;;;;;;;9.13;100.00;99706.39;1698154;83;22037;-76
2022/11/05 00:38:37;;;;;;;11.93;8.57;;;;;;;9.11;100.00;99712.14;1698493;83;21917;-76
2022/11/05 00:41:04;;;;;;;12.63;9.23;;;;;;;9.12;100.00;99707.32;1698958;83;21047;-75
2022/11/05 00:46:17;;;;;;;11.10;8.27;;;;;;;9.13;100.00;99707.70;1699722;83;21014;-76
2022/11/05 00:51:29;;;;;;;6.57;4.80;;;;;;;9.15;100.00;99711.58;1699691;83;21117;-76
2022/11/05 00:53:56;;;;;;;5.63;4.43;;;;;;;9.16;100.00;99720.64;1699410;83;21002;-76
2022/11/05 00:56:23;;;;;;;3.83;3.20;;;;;;;9.13;100.00;99720.77;1699748;83;21077;-76
2022/11/05 00:58:50;;;;;;;4.20;2.67;;;;;;;9.12;100.00;99723.01;1699485;83;21029;-76
2022/11/05 01:01:17;;;;;;;3.03;2.27;;;;;;;9.11;100.00;99723.05;1699747;83;20998;-77
2022/11/05 01:03:44;;;;;;;1.57;1.23;;;;;;;9.10;100.00;99724.83;1699512;83;21121;-77
2022/11/05 01:06:16;;;;;;;2.20;0.90;;;;;;;9.11;100.00;99732.20;1699573;83;21041;-77
2022/11/05 01:08:44;;;;;;;1.43;1.00;;;;;;;9.08;100.00;99729.72;1699371;83;20991;-76
2022/11/05 01:11:31;;;;;;;1.10;0.87;;;;;;;9.06;100.00;99734.16;1699794;83;21066;-76
2022/11/05 01:13:45;;;;;;;2.00;0.70;;;;;;;9.01;100.00;99731.75;1700259;83;22031;-77
2022/11/05 01:16:12;;;;;;;1.90;0.90;;;;;;;8.99;100.00;99737.95;1679039;84;21495;-76
2022/11/05 01:18:39;;;;;;;1.07;0.70;;;;;;;8.99;100.00;99749.72;1679473;84;21034;-77
2022/11/05 01:21:13;;;;;;;0.60;0.60;;;;;;;8.96;100.00;99748.54;1687463;84;21482;-76
2022/11/05 01:23:40;;;;;;;0.60;0.60;;;;;;;8.92;100.00;99764.35;1658118;85;21042;-76
2022/11/05 01:26:07;;;;;;;2.20;0.90;;;;;;;8.89;100.00;99763.14;1697375;83;21018;-77
2022/11/05 01:28:34;;;;;;;0.90;0.80;;;;;;;8.87;100.00;99767.60;1669967;85;21133;-76
2022/11/05 01:31:01;;;;;;;1.23;0.93;;;;;;;8.87;100.00;99768.06;1699522;84;21056;-77
2022/11/05 01:33:28;;;;;;;1.80;1.03;;;;;;;8.87;100.00;99778.52;1683082;84;21016;-76
2022/11/05 01:35:55;;;;;;;1.20;1.10;;;;;;;8.86;100.00;99774.18;1670053;85;21031;-76
2022/11/05 01:38:22;;;;;;;1.83;1.17;;;;;;;8.85;100.00;99772.49;1699917;84;20993;-76
2022/11/05 01:40:49;;;;;;;1.53;1.43;;;;;;;8.82;100.00;99774.77;1669820;85;22239;-77
2022/11/05 01:43:20;;;;;;;1.70;1.60;;;;;;;8.82;100.00;99780.45;1699593;84;20989;-77
2022/11/05 01:45:52;;;;;;;1.97;1.60;;;;;;;8.82;100.00;99787.84;1670056;85;21568;-79
2022/11/05 01:48:30;;;;;;;2.60;1.70;;;;;;;8.80;100.00;99780.97;1697130;84;21393;-77
2022/11/05 01:51:04;;;;;;;1.93;1.73;;;;;;;8.80;100.00;99787.50;1693260;83;22539;-77
2022/11/05 01:53:36;;;;;;;2.60;2.00;;;;;;;8.78;100.00;99785.39;1669937;85;21154;-77
2022/11/05 01:56:14;;;;;;;2.90;1.80;;;;;;;8.76;100.00;99785.90;1699896;84;21019;-81
2022/11/05 01:58:49;;;;;;;2.63;1.87;;;;;;;8.76;100.00;99792.43;1669985;85;21008;-77
2022/11/05 02:01:17;;;;;;;2.00;1.60;;;;;;;8.75;100.00;99803.34;1699846;84;21043;-76
2022/11/05 02:03:46;;;;;;;3.33;1.93;;;;;;;8.75;100.00;99799.42;1670004;85;21019;-76
2022/11/05 02:06:16;;;;;;;1.67;1.57;;;;;;;8.74;100.00;99809.49;1700120;84;21112;-75
2022/11/05 02:08:54;;;;;;;2.98;1.62;;;;;;;8.74;100.00;99807.34;1669916;85;21023;-76
2022/11/05 02:11:21;;;;;;;2.87;2.00;;;;;;;8.73;100.00;99807.80;1699906;84;21011;-76
2022/11/05 02:13:49;;;;;;;2.57;1.70;;;;;;;8.73;100.00;99810.84;1669905;85;21583;-76
2022/11/05 02:16:40;;;;;;;3.90;1.80;;;;;;;8.69;100.00;99807.51;1699832;84;20992;-77
2022/11/05 02:19:22;;;;;;;;;;;;;;;8.69;100.00;99813.58;1672431;85;21150;-76
2022/11/05 02:22:14;;;;;;;1.77;1.33;;;;;;;8.70;100.00;99808.77;1668246;85;20193;-76
2022/11/05 02:25:02;;;;;;;1.63;1.53;;;;;;;8.68;100.00;99807.12;1699672;84;21000;-79
2022/11/05 02:28:09;;;;;;;2.07;1.40;;;;;;;8.65;100.00;99812.02;1669895;85;21035;-76
2022/11/05 02:31:21;;;;;;;1.90;1.20;;;;;;;8.63;100.00;99819.51;1699924;84;20972;-76
2022/11/05 02:34:00;;;;;;;1.83;1.43;;;;;;;8.60;100.00;99815.25;1670042;85;21156;-76
2022/11/05 02:36:44;;;;;;;1.80;1.20;;;;;;;8.59;100.00;99821.40;1699830;84;21016;-76
2022/11/05 02:39:39;;;;;;;1.40;1.20;;;;;;;8.59;100.00;99838.80;1669841;85;21012;-76
2022/11/05 02:42:36;;;;;;;2.90;1.10;;;;;;;8.57;100.00;99828.89;1698125;84;21561;-76
2022/11/05 02:45:34;;;;;;;1.70;1.10;;;;;;;8.56;100.00;99832.39;1678324;84;21047;-76
2022/11/05 02:48:34;;;;;;;1.80;1.40;;;;;;;8.53;100.00;99841.19;1698059;84;21120;-75
2022/11/05 02:51:33;;;;;;;1.67;1.40;;;;;;;8.54;100.00;99849.45;1678566;85;21058;-75
2022/11/05 02:54:14;;;;;;;1.93;1.40;;;;;;;8.52;100.00;99865.63;1680665;85;21042;-75
2022/11/05 02:56:46;;;;;;;2.83;1.60;;;;;;;8.51;100.00;99868.28;1680313;85;21105;-75
2022/11/05 02:59:13;;;;;;;1.67;1.30;;;;;;;8.49;100.00;99867.89;1680769;85;21011;-75
2022/11/05 03:01:42;;;;;;;3.23;1.80;;;;;;;8.49;100.00;99867.89;1680296;85;21260;-75
2022/11/05 03:04:13;;;;;;;2.17;1.67;;;;;;;8.52;100.00;99879.14;1680751;85;21034;-75
2022/11/05 03:07:02;;;;;;;4.90;2.13;;;;;;;8.51;100.00;99882.64;1680340;85;21519;-75
2022/11/05 03:09:34;;;;;;;2.30;1.63;;;;;;;8.53;100.00;99896.50;1680454;85;21022;-75
2022/11/05 03:12:16;;;;;;;1.90;1.70;;;;;;;8.52;100.00;99898.27;1680177;85;21538;-75
2022/11/05 03:15:22;;;;;;;2.40;1.90;;;;;;;8.52;100.00;99906.56;1680724;85;21117;-75
2022/11/05 03:18:23;;;;;;;1.97;1.57;;;;;;;8.51;100.00;99912.25;1680383;85;21014;-75
2022/11/05 03:21:07;;;;;;;3.73;1.70;;;;;;;8.52;100.00;99918.32;1680791;85;21038;-75
2022/11/05 03:23:46;;;;;;;2.57;2.00;;;;;;;8.52;100.00;99923.55;1656021;85;21018;-76
2022/11/05 03:26:24;;;;;;;2.40;2.10;;;;;;;8.50;100.00;99923.59;1679186;85;21074;-76
2022/11/05 03:28:57;;;;;;;2.00;1.80;;;;;;;8.52;100.00;99926.16;1687713;83;21134;-77
2022/11/05 03:31:26;;;;;;;3.10;1.97;;;;;;;8.51;100.00;99934.88;1697653;83;21038;-76
2022/11/05 03:33:55;;;;;;;1.98;1.80;;;;;;;8.51;100.00;99945.33;1680716;85;21287;-76
2022/11/05 03:36:28;;;;;;;2.60;2.00;;;;;;;8.49;100.00;99944.09;1680556;85;21484;-75
2022/11/05 03:38:58;;;;;;;2.03;1.90;;;;;;;8.48;100.00;99947.63;1680548;85;21030;-75
2022/11/05 03:41:27;;;;;;;3.15;1.95;;;;;;;8.48;100.00;99946.32;1678877;84;21140;-76
2022/11/05 03:43:57;;;;;;;2.03;1.80;;;;;;;8.51;100.00;99958.39;1676846;85;21042;-75
2022/11/05 03:46:35;;;;;;;2.27;1.93;;;;;;;8.50;100.00;99952.31;1676909;85;21063;-75
2022/11/05 03:49:06;;;;;;;2.50;2.30;;;;;;;8.51;100.00;99954.05;1677027;85;21038;-76
2022/11/05 03:51:38;;;;;;;2.83;2.00;;;;;;;8.49;100.00;99960.61;1677246;85;21027;-75
2022/11/05 03:54:05;;;;;;;2.60;1.83;;;;;;;8.50;100.00;99969.30;1699659;83;21444;-75
2022/11/05 03:56:50;;;;;;;2.53;1.80;;;;;;;8.52;100.00;99975.78;1670163;85;21004;-74
2022/11/05 03:59:19;;;;;;;2.77;1.70;;;;;;;8.52;100.00;99971.87;1634509;85;21036;-74
2022/11/05 04:01:48;;;;;;;1.97;1.50;;;;;;;8.52;100.00;99975.33;1634538;87;21512;-75
2022/11/05 04:04:15;;;;;;;1.27;1.17;;;;;;;8.52;100.00;99977.94;1634580;87;21066;-74
2022/11/05 04:14:59;;;;;;;2.40;1.40;;;;;;;8.48;100.00;100002.47;1634307;87;21103;-74
2022/11/05 04:17:26;;;;;;;2.23;1.50;;;;;;;8.48;100.00;100006.39;1634285;87;21054;-74
2022/11/05 04:25:21;;;;;;;2.13;1.20;;;;;;;8.49;100.00;100012.85;1549470;87;21059;-79
2022/11/05 04:27:48;;;;;;;2.30;1.30;;;;;;;8.49;100.00;100030.29;1634541;87;21075;-74
2022/11/05 04:30:17;;;;;;;2.63;1.80;;;;;;;8.51;100.00;100033.71;1634411;87;21635;-74
2022/11/05 04:33:06;;;;;;;2.73;1.30;;;;;;;8.53;100.00;100039.71;1634504;87;21129;-73
2022/11/05 04:35:37;;;;;;;2.80;1.37;;;;;;;8.53;100.00;100038.41;1638588;86;21205;-74
2022/11/05 04:38:08;;;;;;;2.33;1.20;;;;;;;8.53;100.00;100042.78;1676842;85;21042;-74
2022/11/05 04:40:36;;;;;;;2.50;1.60;;;;;;;8.54;100.00;100049.73;1699736;83;21030;-74
2022/11/05 04:43:04;;;;;;;1.87;1.57;;;;;;;8.56;100.00;100057.89;1669740;85;22110;-74
2022/11/05 04:45:33;;;;;;;1.97;1.77;;;;;;;8.56;100.00;100057.89;1699495;84;21139;-75
2022/11/05 04:48:05;;;;;;;2.37;1.73;;;;;;;8.58;100.00;100066.99;1669917;85;21019;-74
2022/11/05 04:50:34;;;;;;;2.87;1.47;;;;;;;8.57;100.00;100058.77;1699450;84;21011;-74
2022/11/05 04:53:01;;;;;;;1.90;1.40;;;;;;;8.58;100.00;100057.39;1670097;85;21031;-74
2022/11/05 04:55:28;;;;;;;1.80;1.50;;;;;;;8.58;100.00;100052.17;1699464;84;21075;-74
2022/11/05 04:57:55;;;;;;;3.27;1.90;;;;;;;8.60;100.00;100058.20;1670010;85;21334;-75
2022/11/05 05:00:23;;;;;;;2.30;1.63;;;;;;;8.62;100.00;100062.08;1699491;84;21024;-75
2022/11/05 05:02:50;;;;;;;2.03;1.33;;;;;;;8.59;100.00;100069.56;1670083;85;21495;-76
2022/11/05 05:05:18;;;;;;;2.13;1.50;;;;;;;8.59;100.00;100071.30;1699489;84;20996;-76
2022/11/05 05:07:45;;;;;;;4.30;1.30;;;;;;;8.57;100.00;100077.05;1670120;85;21464;-75
2022/11/05 05:10:12;;;;;;;1.87;1.40;;;;;;;8.58;100.00;100083.52;1699402;84;21108;-75
2022/11/05 05:12:39;;;;;;;3.33;1.40;;;;;;;8.58;100.00;100094.42;1670084;85;21015;-76
2022/11/05 05:15:07;;;;;;;1.77;1.30;;;;;;;8.58;100.00;100093.96;1699554;84;20988;-76
2022/11/05 05:17:34;;;;;;;1.90;1.17;;;;;;;8.56;100.00;100100.98;1670017;85;21023;-75
2022/11/05 05:22:53;;;;;;;1.77;1.47;;;;;;;8.55;100.00;100105.83;1664566;85;21922;-76
2022/11/05 05:25:22;;;;;;;1.87;1.40;;;;;;;8.57;100.00;100113.62;1694369;83;21010;-76
2022/11/05 05:27:49;;;;;;;1.50;1.20;;;;;;;8.55;100.00;100121.50;1670095;85;21078;-76
2022/11/05 05:30:16;;;;;;;2.90;1.50;;;;;;;8.54;100.00;100120.27;1699549;84;21020;-75
2022/11/05 05:32:43;;;;;;;1.50;1.37;;;;;;;8.56;100.00;100118.43;1669938;85;21039;-75
2022/11/05 05:35:10;;;;;;;1.80;1.40;;;;;;;8.58;100.00;100123.16;1699406;84;22062;-75
2022/11/05 05:37:37;;;;;;;2.00;1.33;;;;;;;8.56;100.00;100123.20;1669931;85;21526;-76
2022/11/05 05:40:05;;;;;;;1.70;1.47;;;;;;;8.55;100.00;100121.50;1699388;84;21435;-77
2022/11/05 05:42:32;;;;;;;1.90;1.20;;;;;;;8.54;100.00;100135.48;1668812;85;20980;-77
2022/11/05 05:44:59;;;;;;;2.50;1.27;;;;;;;8.54;100.00;100143.77;1697674;84;21453;-76
2022/11/05 05:47:26;;;;;;;2.47;1.20;;;;;;;8.52;100.00;100146.42;1698049;84;21085;-77
2022/11/05 05:49:53;;;;;;;1.70;1.30;;;;;;;8.49;100.00;100149.98;1697506;84;21004;-76
2022/11/05 05:52:20;;;;;;;1.30;1.20;;;;;;;8.48;100.00;100153.97;1697947;84;21004;-76
2022/11/05 05:54:47;;;;;;;2.20;1.50;;;;;;;8.47;100.00;100162.69;1697715;84;21004;-76
2022/11/05 05:57:15;;;;;;;2.47;1.50;;;;;;;8.46;100.00;100159.23;1680513;85;21010;-77
2022/11/05 05:59:42;;;;;;;1.63;1.50;;;;;;;8.46;100.00;100156.62;1680324;85;21959;-76
2022/11/05 06:02:10;;;;;;;1.50;1.27;;;;;;;8.47;100.00;100156.16;1680542;85;21019;-76
2022/11/05 06:04:37;;;;;;;1.70;1.40;;;;;;;8.46;100.00;100158.38;1680195;85;21054;-76
2022/11/05 06:07:06;;;;;;;1.57;1.43;;;;;;;8.46;100.00;100161.84;1680533;85;21034;-76
2022/11/05 06:09:33;;;;;;;2.57;1.90;;;;;;;8.46;100.00;100163.60;1680207;85;22166;-76
2022/11/05 06:12:00;;;;;;;2.47;1.50;;;;;;;8.46;100.00;100164.91;1680518;85;21552;-76
2022/11/05 06:14:27;;;;;;;3.40;2.00;;;;;;;8.51;100.00;100181.72;1680474;85;21517;-76
2022/11/05 06:16:54;;;;;;;2.60;2.00;;;;;;;8.49;100.00;100189.63;1680651;85;21477;-76
2022/11/05 06:19:21;;;;;;;2.50;2.20;;;;;;;8.52;100.00;100200.42;1680534;85;21456;-77
2022/11/05 06:21:48;;;;;;;2.20;1.80;;;;;;;8.52;100.00;100206.95;1687132;84;21102;-76
2022/11/05 06:24:15;;;;;;;2.17;1.97;;;;;;;8.52;100.00;100210.42;1683766;84;21123;-78
2022/11/05 06:26:42;;;;;;;2.37;2.10;;;;;;;8.52;100.00;100205.66;1697131;84;21034;-77
2022/11/05 06:29:12;;;;;;;1.80;1.70;;;;;;;8.53;100.00;100204.73;1685054;84;21547;-76
2022/11/05 06:31:39;;;;;;;2.33;1.52;;;;;;;8.54;100.00;100200.78;1693374;84;22041;-77
2022/11/05 06:34:06;;;;;;;2.57;1.90;;;;;;;8.55;100.00;100202.48;1691266;84;21050;-75
2022/11/05 06:36:33;;;;;;;2.57;1.60;;;;;;;8.56;100.00;100209.41;1710830;83;21975;-75
2022/11/05 06:39:00;;;;;;;3.00;2.00;;;;;;;8.58;100.00;100223.73;1692519;84;21062;-75
2022/11/05 06:41:26;;;;;;;3.03;1.90;;;;;;;8.57;100.00;100229.42;1681568;84;21054;-75
2022/11/05 06:43:53;;;;;;;2.17;1.60;;;;;;;8.60;100.00;100240.23;1679724;84;21046;-74
2022/11/05 06:46:20;;;;;;;2.40;1.80;;;;;;;8.60;100.00;100251.98;1669431;84;21110;-74
2022/11/05 06:48:48;;;;;;;3.07;1.87;;;;;;;8.61;100.00;100246.70;1682472;84;21807;-74
2022/11/05 06:51:15;;;;;;;3.20;1.93;;;;;;;8.64;100.00;100254.43;1660142;85;21027;-74
2022/11/05 06:53:42;;;;;;;3.17;1.83;;;;;;;8.65;100.00;100250.09;1678833;84;21093;-73
2022/11/05 06:56:09;;;;;;;2.53;1.90;;;;;;;8.65;100.00;100247.02;1659804;85;21062;-74
2022/11/05 06:58:36;;;;;;;1.80;1.60;;;;;;;8.67;100.00;100256.09;1677524;84;22432;-74
2022/11/05 07:01:07;;;;;;;3.73;1.90;;;;;;;8.67;100.00;100263.51;1667453;84;21154;-74
2022/11/05 07:03:35;;;;;;;2.90;1.87;;;;;;;8.69;100.00;100266.91;1684383;84;21082;-74
2022/11/05 07:06:03;;;;;;;3.67;1.70;;;;;;;8.73;100.00;100266.80;1671354;84;21508;-73
2022/11/05 07:08:33;;;;;;;5.30;1.90;;;;;;;8.76;100.00;100254.52;1683658;84;21599;-74
2022/11/05 07:11:00;;;;;;;3.50;1.72;;;;;;;8.80;100.00;100270.48;1676427;84;21535;-74
2022/11/05 07:13:27;;;;;;;3.93;1.87;;;;;;;8.80;100.00;100274.87;1678696;84;21120;-74
2022/11/05 07:15:54;;;;;;;2.93;1.53;;;;;;;8.82;100.00;100283.52;1682227;84;21515;-74
2022/11/05 07:18:22;;;;;;;2.40;1.30;;;;;;;8.83;100.00;100276.07;1671510;84;21058;-73
2022/11/05 07:20:49;;;;;;;3.90;1.50;;;;;;;8.83;100.00;100282.15;1680771;84;21050;-74
2022/11/05 07:23:16;;;;;;;2.67;1.23;;;;;;;8.87;100.00;100284.23;1669696;84;21640;-73
2022/11/05 07:25:43;;;;;;;2.40;1.23;;;;;;;8.86;100.00;100276.82;1657073;85;21111;-74
2022/11/05 07:28:10;;;;;;;2.03;1.40;;;;;;;8.86;100.00;100287.27;1687333;84;21054;-73
2022/11/05 07:30:38;;;;;;;3.83;1.33;;;;;;;8.88;100.00;100284.63;1686599;84;21031;-73
2022/11/05 07:33:05;;;;;;;2.50;1.13;;;;;;;8.87;100.00;100290.77;1688912;84;21062;-74
2022/11/05 07:35:33;;;;;;;3.67;1.13;;;;;;;8.89;100.00;100295.48;1687219;84;22263;-75
2022/11/05 07:37:59;;;;;;;2.70;1.37;;;;;;;8.90;100.00;100299.36;1682455;84;21182;-73
2022/11/05 07:40:28;;;;;;;2.77;1.30;;;;;;;8.91;100.00;100301.06;1686023;84;21107;-72
2022/11/05 07:42:59;;;;;;;2.33;1.20;;;;;;;8.91;100.00;100304.13;1705192;82;21061;-73
2022/11/05 07:45:29;;;;;;;3.27;1.07;;;;;;;8.93;100.00;100308.41;1724371;82;21038;-80
2022/11/05 07:48:01;;;;;;;1.90;1.40;;;;;;;8.94;100.00;100311.41;1718910;82;21758;-73
2022/11/05 07:50:35;;;;;;;3.40;1.20;;;;;;;8.94;100.00;100312.72;1705042;83;21118;-74
2022/11/05 07:53:08;;;;;;;2.97;1.40;;;;;;;8.97;100.00;100309.16;1704859;83;21014;-75
2022/11/05 07:55:35;;;;;;;2.73;1.30;;;;;;;8.96;100.00;100319.22;1718050;82;21103;-76
2022/11/05 07:58:03;;;;;;;2.00;1.03;;;;;;;8.97;100.00;100326.15;1722158;82;21526;-75
2022/11/05 08:00:30;;;;;;;1.70;0.93;;;;;;;8.98;100.00;100327.88;1705316;83;21041;-79
2022/11/05 08:03:08;;;;;;;3.23;1.47;;;;;;;8.98;100.00;100339.64;1705293;83;21224;-83
2022/11/05 08:05:38;;;;;;;2.50;1.20;;;;;;;8.97;100.00;100344.45;1704774;83;21011;-78
2022/11/05 08:08:07;;;;;;;4.03;1.45;;;;;;;8.96;100.00;100344.52;1718353;82;21034;-79
2022/11/05 08:10:36;;;;;;;2.33;1.10;;;;;;;9.01;100.00;100350.00;1705453;83;21038;-80
2022/11/05 08:13:04;;;;;;;1.03;0.93;;;;;;;9.04;100.00;100354.28;1717990;82;21007;-83
2022/11/05 08:15:31;;;;;;;4.80;1.53;;;;;;;9.05;100.00;100358.14;1709570;83;21127;-76
2022/11/05 08:18:05;;;;;;;3.07;1.40;;;;;;;9.09;100.00;100353.23;1683987;84;20962;-76
2022/11/05 08:20:34;;;;;;;2.07;1.00;;;;;;;9.16;100.00;100361.72;1716506;82;21042;-76
2022/11/05 08:23:01;;;;;;;5.17;1.50;;;;;;;9.21;100.00;100368.97;1717657;82;21476;-76
2022/11/05 08:25:28;;;;;;;3.00;1.33;;;;;;;9.26;100.00;100374.92;1722053;83;21026;-77
2022/11/05 08:27:59;;;;;;;4.67;1.90;;;;;;;9.32;100.00;100376.48;1693794;84;21124;-77
2022/11/05 08:30:27;;;;;;;4.90;2.23;;;;;;;9.40;100.00;100377.55;1724544;83;21016;-77
2022/11/05 08:33:04;;;;;;;3.05;1.92;;;;;;;9.41;100.00;100377.94;1694026;84;22316;-77
2022/11/05 08:35:34;;;;;;;3.10;2.03;;;;;;;9.45;100.00;100384.77;1717229;82;21028;-76
2022/11/05 08:38:04;;;;;;;8.38;2.67;;;;;;;9.51;100.00;100389.37;1690689;84;21030;-76
2022/11/05 08:40:34;;;;;;;5.10;2.37;;;;;;;9.59;100.00;100387.36;1723626;83;21206;-80
2022/11/05 08:43:04;;;;;;;3.70;2.37;;;;;;;9.65;100.00;100400.69;1692429;84;22315;-75
2022/11/05 08:45:31;;;;;;;7.10;3.00;;;;;;;9.76;100.00;100412.11;1722886;82;21037;-79
2022/11/05 08:48:08;;;;;;;7.08;2.83;;;;;;;9.79;100.00;100415.94;1690389;84;21032;-77
2022/11/05 08:50:36;;;;;;;5.62;2.62;;;;;;;9.84;100.00;100419.25;1722237;82;21018;-75
2022/11/05 08:53:04;;;;;;;4.65;2.80;;;;;;;9.86;100.00;100421.34;1689212;84;21569;-77
2022/11/05 08:55:32;;;;;;;5.22;2.80;;;;;;;9.92;100.00;100427.71;1720785;82;22418;-78
2022/11/05 08:58:03;;;;;;;6.97;3.30;;;;;;;9.94;100.00;100425.88;1723170;82;21029;-82
2022/11/05 09:00:34;;;;;;;4.92;2.60;;;;;;;9.94;100.00;100430.26;1715011;82;21480;-75
2022/11/05 09:03:05;;;;;;;4.83;2.58;;;;;;;9.96;100.00;100431.06;1702630;83;21093;-74
2022/11/05 09:05:38;;;;;;;5.62;2.70;;;;;;;9.97;100.00;100441.47;1714977;82;21492;-78
2022/11/05 09:08:11;;;;;;;5.90;3.10;;;;;;;9.99;100.00;100447.52;1719748;82;21022;-74
2022/11/05 09:10:39;;;;;;;4.87;2.75;;;;;;;9.96;100.00;100451.55;1714479;82;21667;-84
2022/11/05 09:13:06;;;;;;;5.62;2.92;;;;;;;9.92;100.00;100451.27;1686414;84;21076;-78
2022/11/05 09:15:37;;;;;;;6.85;3.15;;;;;;;9.93;100.00;100459.52;1717489;82;21024;-76
2022/11/05 09:18:04;;;;;;;6.95;3.35;;;;;;;9.94;100.00;100461.67;1722614;83;21126;-78
2022/11/05 09:20:32;;;;;;;7.08;3.70;;;;;;;9.89;100.00;100464.44;1689400;84;21077;-78
2022/11/05 09:22:59;;;;;;;7.87;3.30;;;;;;;9.90;100.00;100470.56;1721290;82;20953;-78
2022/11/05 09:25:26;;;;;;;6.00;3.83;;;;;;;9.87;100.00;100477.20;1689101;84;21016;-78
2022/11/05 09:27:53;;;;;;;4.95;3.30;;;;;;;9.85;100.00;100479.86;1720083;82;21493;-78
2022/11/05 09:30:20;;;;;;;8.93;3.65;;;;;;;9.87;100.00;100481.98;1689274;84;21183;-79
2022/11/05 09:32:48;;;;;;;9.73;4.08;;;;;;;9.90;100.00;100476.64;1704943;82;21026;-78
2022/11/05 09:35:15;;;;;;;9.23;4.22;;;;;;;9.99;100.00;100479.41;1715089;82;21050;-78
2022/11/05 09:37:42;;;;;;;8.15;4.50;;;;;;;10.05;100.00;100481.35;1715181;82;21050;-76
2022/11/05 09:40:14;;;;;;;10.23;4.50;;;;;;;10.13;100.00;100477.17;1702511;83;21699;-77
2022/11/05 09:42:45;;;;;;;8.23;4.67;;;;;;;10.19;100.00;100478.73;1715208;82;21623;-76
2022/11/05 09:45:19;;;;;;;10.28;5.50;;;;;;;10.26;100.00;100482.40;1714947;82;21011;-77
2022/11/05 09:47:53;;;;;;;8.05;4.20;;;;;;;10.39;100.00;100478.06;1668869;85;21015;-78
2022/11/05 09:50:31;;;;;;;5.75;4.30;;;;;;;10.44;100.00;100482.69;1670250;85;21120;-78
2022/11/05 09:52:59;;;;;;;8.60;4.50;;;;;;;10.50;100.00;100487.71;1663063;84;21058;-78
2022/11/05 09:55:40;;;;;;;8.58;3.40;;;;;;;10.50;100.00;100489.02;1661654;84;21145;-78
2022/11/05 09:58:42;;;;;;;6.90;3.30;;;;;;;10.50;100.00;100490.33;1662078;84;21004;-78
2022/11/05 10:01:14;;;;;;;10.75;3.70;;;;;;;10.51;100.00;100488.59;1668818;85;21094;-78
2022/11/05 10:03:49;;;;;;;6.62;3.20;;;;;;;10.58;100.00;100488.30;1668260;85;21031;-79
2022/11/05 10:06:22;;;;;;;8.83;3.00;;;;;;;10.58;100.00;100489.61;1668983;85;21079;-82
2022/11/05 10:09:07;;;;;;;6.40;2.95;;;;;;;10.62;100.00;100493.00;1668971;85;21208;-83
2022/11/05 10:11:45;;;;;;;9.23;3.35;;;;;;;10.63;100.00;100495.55;1677207;85;21055;-80
2022/11/05 10:14:29;;;;;;;9.70;3.22;;;;;;;10.64;99.88;100496.39;1669164;85;21468;-85
2022/11/05 10:17:10;;;;;;;11.55;3.47;;;;;;;10.63;99.69;100500.79;1668839;85;21030;-85
2022/11/05 10:19:54;;;;;;;8.75;3.40;;;;;;;10.68;99.62;100508.04;1669651;85;21031;-81
2022/11/05 10:22:21;;;;;;;5.08;2.35;;;;;;;10.60;99.15;100511.38;1668610;85;21335;-78
2022/11/05 10:24:51;;;;;;;6.62;2.40;;;;;;;10.63;99.23;100511.73;1683075;85;20974;-79
2022/11/05 10:27:23;;;;;;;6.77;2.47;;;;;;;10.68;99.50;100512.44;1665840;86;21031;-80
2022/11/05 10:29:51;;;;;;;6.78;2.50;;;;;;;10.77;99.41;100510.78;1665197;85;21036;-80
2022/11/05 10:32:37;;;;;;;8.28;2.60;;;;;;;10.87;99.39;100517.88;1665593;86;21512;-79
2022/11/05 10:35:09;;;;;;;7.58;2.95;;;;;;;10.98;99.24;100521.42;1662976;84;21046;-78
2022/11/05 10:37:37;;;;;;;6.83;2.47;;;;;;;11.08;99.23;100525.39;1670472;84;21023;-76
2022/11/05 10:40:15;;;;;;;6.67;2.60;;;;;;;11.12;98.94;100525.23;1669062;85;21042;-80
2022/11/05 10:42:59;;;;;;;9.33;3.10;;;;;;;11.11;98.55;100526.16;1668778;83;21043;-81
2022/11/05 10:45:41;;;;;;;8.98;3.45;;;;;;;11.14;98.49;100528.66;1714837;82;21030;-80
2022/11/05 10:48:50;;;;;;;9.50;2.70;;;;;;;11.12;97.90;100531.80;1715109;82;21163;-77
2022/11/05 10:51:17;;;;;;;8.38;2.55;;;;;;;11.08;97.51;100531.95;1715346;82;21015;-76
2022/11/05 10:53:52;;;;;;;11.33;4.25;;;;;;;11.08;97.51;100539.36;1702560;83;21599;-76
2022/11/05 10:56:38;;;;;;;8.25;2.77;;;;;;;11.07;97.29;100539.44;1701009;82;21041;-77
2022/11/05 10:59:19;;;;;;;8.93;2.45;;;;;;;11.05;96.88;100536.85;1714838;82;21535;-77
2022/11/05 11:01:46;;;;;;;11.90;2.65;;;;;;;11.05;96.95;100539.94;1713242;82;21153;-77
2022/11/05 11:04:18;;;;;;;7.87;2.52;;;;;;;11.07;96.83;100540.74;1720458;83;20937;-77
2022/11/05 11:06:52;;;;;;;12.03;2.95;;;;;;;11.10;96.80;100542.79;1693402;84;21008;-77
2022/11/05 11:09:34;;;;;;;8.38;2.70;;;;;;;11.14;96.81;100544.41;1723852;83;21096;-77
2022/11/05 11:12:06;;;;;;;8.15;2.52;;;;;;;11.14;96.61;100545.72;1694110;84;21028;-77
2022/11/05 11:14:34;;;;;;;8.88;2.33;;;;;;;11.21;96.52;100542.86;1722972;83;21271;-78
2022/11/05 11:17:28;;;;;;;10.03;2.33;;;;;;;11.27;96.53;100546.09;1693906;84;21383;-77
2022/11/05 11:20:29;;;;;;;9.43;3.12;;;;;;;11.33;96.18;100549.83;1724071;83;21001;-76
2022/11/05 11:23:00;;;;;;;8.83;2.70;;;;;;;11.35;95.88;100557.62;1684242;84;21101;-77
2022/11/05 11:25:41;;;;;;;9.03;3.15;;;;;;;11.40;95.64;100567.49;1720709;83;21461;-77
2022/11/05 11:28:13;;;;;;;10.45;4.05;;;;;;;11.48;95.24;100571.15;1693666;84;21116;-77
2022/11/05 11:30:54;;;;;;;9.33;2.47;;;;;;;11.60;95.20;100571.98;1723217;83;21959;-78
2022/11/05 11:33:26;;;;;;;9.40;2.87;;;;;;;11.78;94.98;100573.91;1670462;84;21064;-82
2022/11/05 11:35:54;;;;;;;8.10;3.10;;;;;;;11.82;94.29;100560.19;1723405;83;21017;-81
2022/11/05 11:38:23;;;;;;;10.48;3.45;;;;;;;11.87;94.37;100562.67;1694047;84;21472;-79
2022/11/05 11:40:52;;;;;;;8.90;2.60;;;;;;;11.98;94.18;100563.94;1724571;83;22306;-82
2022/11/05 11:43:31;;;;;;;10.48;3.05;;;;;;;12.14;94.08;100569.44;1669725;84;21909;-86
2022/11/05 11:45:58;;;;;;;7.35;2.70;;;;;;;12.34;94.13;100570.39;1724374;83;21061;-77
2022/11/05 11:48:28;;;;;;;11.28;3.02;;;;;;;12.57;93.96;100566.31;1693698;84;21486;-76
2022/11/05 11:50:56;;;;;;;;;;;;;;;12.58;93.11;100572.42;1727003;83;21016;-83
2022/11/05 11:53:29;;;;;;;8.88;2.35;;;;;;;12.49;92.08;100569.73;1723836;83;21126;-83
2022/11/05 11:56:03;;;;;;;7.12;2.22;;;;;;;12.37;91.71;100576.83;1693701;84;21020;-82
2022/11/05 11:58:47;;;;;;;8.48;2.20;;;;;;;12.32;91.82;100583.58;1723568;83;21021;-81
2022/11/05 12:01:36;;;;;;;9.80;2.30;;;;;;;12.22;91.34;100576.55;1694047;84;21025;-82
2022/11/05 12:04:45;;;;;;;12.00;2.67;;;;;;;12.19;91.35;100572.74;1723982;83;21028;-80
2022/11/05 12:07:37;;;;;;;7.87;2.22;;;;;;;12.20;91.25;100569.18;1672576;84;21124;-82
2022/11/05 12:10:37;;;;;;;6.75;2.50;;;;;;;12.25;91.15;100572.48;1626812;87;21069;-85
2022/11/05 12:13:24;;;;;;;8.23;2.77;;;;;;;12.24;91.01;100572.06;1623357;87;21575;-81
2022/11/05 12:16:24;;;;;;;9.00;2.72;;;;;;;12.40;91.27;100584.59;1627008;86;21087;-84
2022/11/05 12:19:21;;;;;;;7.22;2.90;;;;;;;12.61;91.02;100586.33;1628159;87;22192;-81
2022/11/05 12:22:10;;;;;;;9.40;3.33;;;;;;;12.97;90.80;100584.77;1614679;87;21531;-82
2022/11/05 12:25:11;;;;;;;8.80;3.15;;;;;;;13.27;90.17;100579.95;1626877;86;21051;-81
2022/11/05 12:28:02;;;;;;;8.05;2.87;;;;;;;13.46;89.85;100583.92;1614988;87;21101;-81
2022/11/05 12:30:49;;;;;;;10.28;3.33;;;;;;;13.81;89.53;100580.50;1623813;86;21067;-75
2022/11/05 12:33:50;;;;;;;9.45;3.12;;;;;;;14.06;88.92;100585.91;1622778;87;21070;-79